KMWL

Mineral Wells Airport

Mineral Wells, Texas, USA
METAR KMWL 161453Z AUTO 00000KT 10SM CLR 10/03 A3015 RMK AO2 SLP205 T01000028 51008
Observed Flight Rules
Nov-16 @ 14:53 UTC (an hour ago) Visual Flight Rules
Visibility Clouds
10 miles
  • Clear skies
Temperatures Readings
Current 10°C / 50°F
Dewpoint 3°C / 37°F
Humidity 62%
Altimeter 30.15" Hg
Pressure 1020.5 hPa
Elevation 284
METAR KMWL 161453Z AUTO 00000KT 10SM CLR 10/03 A3015 RMK AO2 SLP205 T01000028 51008
Observed Flight Rules
Nov-16 @ 14:53 UTC
(an hour ago)
VFR
Clouds
  • Clear skies
Temperature Dewpoint
10°C / 50°F 3°C / 37°F
Humidity Altimeter Pressure
62% 30.15" Hg 1020.5 hPa